createdAt,value
2023-01-19T00:01:00.570Z,98377.97
2023-01-19T00:03:27.883Z,98383.66
2023-01-19T00:05:55.263Z,98388.00
2023-01-19T00:08:22.602Z,98383.47
2023-01-19T00:10:53.274Z,98381.84
2023-01-19T00:13:20.511Z,98382.66
2023-01-19T00:15:47.842Z,98383.84
2023-01-19T00:18:16.086Z,98375.47
2023-01-19T00:20:49.023Z,98375.66
2023-01-19T00:23:16.941Z,98373.16
2023-01-19T00:25:44.227Z,98380.81
2023-01-19T00:28:16.076Z,98380.72
2023-01-19T00:30:44.905Z,98380.72
2023-01-19T00:33:15.541Z,98382.22
2023-01-19T00:35:43.808Z,98374.38
2023-01-19T00:38:12.671Z,98375.81
2023-01-19T00:40:39.770Z,98367.28
2023-01-19T00:43:06.927Z,98367.47
2023-01-19T00:45:34.588Z,98368.19
2023-01-19T00:48:02.405Z,98369.78
2023-01-19T00:50:32.079Z,98376.97
2023-01-19T00:53:01.856Z,98379.81
2023-01-19T00:55:32.667Z,98382.56
2023-01-19T00:57:59.991Z,98374.25
2023-01-19T01:00:27.296Z,98376.72
2023-01-19T01:02:55.325Z,98381.53
2023-01-19T01:05:22.797Z,98381.53
2023-01-19T01:07:50.683Z,98390.44
2023-01-19T01:10:22.774Z,98390.34
2023-01-19T01:12:56.188Z,98394.69
2023-01-19T01:15:38.405Z,98386.84
2023-01-19T01:18:05.627Z,98395.84
2023-01-19T01:20:34.465Z,98389.97
2023-01-19T01:23:02.226Z,98394.13
2023-01-19T01:25:31.150Z,98385.63
2023-01-19T01:27:58.414Z,98391.38
2023-01-19T01:30:25.575Z,98390.59
2023-01-19T01:32:52.700Z,98389.53
2023-01-19T01:35:19.921Z,98385.09
2023-01-19T01:37:47.138Z,98386.84
2023-01-19T01:40:18.821Z,98386.50
2023-01-19T01:42:46.368Z,98390.75
2023-01-19T01:45:35.793Z,98393.44
2023-01-19T01:48:28.107Z,98389.63
2023-01-19T01:51:24.479Z,98374.41
2023-01-19T01:54:16.772Z,98378.22
2023-01-19T01:56:49.326Z,98380.09
2023-01-19T01:59:26.838Z,98377.59
2023-01-19T02:02:16.720Z,98382.94
2023-01-19T02:04:51.447Z,98383.09
2023-01-19T02:08:11.566Z,98393.44
2023-01-19T02:11:00.390Z,98392.00
2023-01-19T02:13:35.217Z,98390.25
2023-01-19T02:16:08.173Z,98390.06
2023-01-19T02:18:37.169Z,98389.88
2023-01-19T02:22:20.566Z,98392.19
2023-01-19T02:24:49.787Z,98391.47
2023-01-19T02:27:17.676Z,98393.78
2023-01-19T02:29:45.261Z,98383.47
2023-01-19T02:32:12.822Z,98391.13
2023-01-19T02:34:40.112Z,98385.25
2023-01-19T02:37:13.653Z,98378.13
2023-01-19T02:39:55.059Z,98384.06
2023-01-19T02:42:48.722Z,98377.31
2023-01-19T02:45:22.630Z,98371.53
2023-01-19T02:47:52.833Z,98370.75
2023-01-19T02:50:36.176Z,98362.94
2023-01-19T02:53:47.485Z,98365.16
2023-01-19T02:57:00.498Z,98370.22
2023-01-19T03:00:25.471Z,98366.13
2023-01-19T03:03:11.431Z,98372.81
2023-01-19T03:06:10.166Z,98372.53
2023-01-19T03:09:11.394Z,98368.53
2023-01-19T03:11:44.593Z,98376.44
2023-01-19T03:14:20.758Z,98379.47
2023-01-19T03:16:57.456Z,98385.59
2023-01-19T03:19:37.983Z,98383.28
2023-01-19T03:22:15.602Z,98381.75
2023-01-19T03:24:46.288Z,98386.53
2023-01-19T03:27:31.206Z,98395.72
2023-01-19T03:30:11.522Z,98384.88
2023-01-19T03:32:54.603Z,98393.53
2023-01-19T03:35:25.038Z,98386.78
2023-01-19T03:37:58.147Z,98390.22
2023-01-19T03:40:30.514Z,98382.47
2023-01-19T03:42:59.649Z,98385.34
2023-01-19T03:45:27.679Z,98386.91
2023-01-19T03:47:55.446Z,98392.69
2023-01-19T03:50:30.046Z,98396.13
2023-01-19T03:53:16.712Z,98397.03
2023-01-19T03:55:48.756Z,98396.78
2023-01-19T03:58:15.896Z,98398.94
2023-01-19T04:00:44.258Z,98407.13
2023-01-19T04:03:16.291Z,98406.22
2023-01-19T04:05:44.411Z,98400.28
2023-01-19T04:08:12.012Z,98404.28
2023-01-19T04:10:39.588Z,98397.22
2023-01-19T04:13:07.039Z,98389.69
2023-01-19T04:15:34.318Z,98374.22
2023-01-19T04:18:01.863Z,98366.47
2023-01-19T04:20:30.042Z,98372.97
2023-01-19T04:23:01.763Z,98370.50
2023-01-19T04:25:29.241Z,98385.50
2023-01-19T04:28:00.263Z,98401.38
2023-01-19T04:30:27.977Z,98398.22
2023-01-19T04:32:58.653Z,98397.88
2023-01-19T04:35:26.127Z,98389.97
2023-01-19T04:37:53.297Z,98398.25
2023-01-19T04:40:20.596Z,98414.00
2023-01-19T04:42:47.826Z,98422.38
2023-01-19T04:45:15.230Z,98419.41
2023-01-19T04:47:42.678Z,98415.00
2023-01-19T04:50:11.743Z,98414.91
2023-01-19T04:52:39.069Z,98412.25
2023-01-19T04:55:08.015Z,98408.91
2023-01-19T04:57:35.633Z,98414.56
2023-01-19T05:00:06.616Z,98411.69
2023-01-19T05:02:34.657Z,98404.97
2023-01-19T05:05:02.488Z,98408.16
2023-01-19T05:07:29.953Z,98414.09
2023-01-19T05:09:57.167Z,98419.72
2023-01-19T05:12:24.328Z,98422.19
2023-01-19T05:14:51.625Z,98426.75
2023-01-19T05:17:18.868Z,98424.97
2023-01-19T05:19:46.299Z,98414.06
2023-01-19T05:22:13.979Z,98425.41
2023-01-19T05:24:41.317Z,98433.47
2023-01-19T05:27:08.874Z,98439.88
2023-01-19T05:29:36.069Z,98444.06
2023-01-19T05:32:03.785Z,98451.19
2023-01-19T05:34:31.083Z,98447.19
2023-01-19T05:36:58.257Z,98444.72
2023-01-19T05:39:26.696Z,98452.72
2023-01-19T05:41:53.904Z,98455.50
2023-01-19T05:44:22.176Z,98460.47
2023-01-19T05:46:49.432Z,98461.16
2023-01-19T05:49:16.744Z,98461.25
2023-01-19T05:51:45.390Z,98467.22
2023-01-19T05:54:15.436Z,98467.22
2023-01-19T05:56:43.566Z,98469.06
2023-01-19T05:59:11.177Z,98467.38
2023-01-19T06:01:39.917Z,98474.50
2023-01-19T06:04:07.501Z,98477.44
2023-01-19T06:06:34.643Z,98472.91
2023-01-19T06:09:01.941Z,98472.03
2023-01-19T06:11:29.094Z,98477.63
2023-01-19T06:13:56.277Z,98485.38
2023-01-19T06:16:23.542Z,98492.53
2023-01-19T06:18:50.687Z,98491.00
2023-01-19T06:21:17.926Z,98495.38
2023-01-19T06:23:45.167Z,98504.97
2023-01-19T06:26:12.580Z,98511.13
2023-01-19T06:28:39.855Z,98511.81
2023-01-19T06:31:07.057Z,98522.22
2023-01-19T06:33:34.439Z,98515.56
2023-01-19T06:36:01.684Z,98521.00
2023-01-19T06:38:29.248Z,98533.91
2023-01-19T06:40:58.729Z,98535.31
2023-01-19T06:43:26.739Z,98542.03
2023-01-19T06:45:54.963Z,98545.91
2023-01-19T06:48:23.338Z,98550.22
2023-01-19T06:50:50.622Z,98553.53
2023-01-19T06:53:19.830Z,98548.31
2023-01-19T06:55:47.027Z,98551.47
2023-01-19T06:58:14.726Z,98557.41
2023-01-19T07:00:42.877Z,98557.59
2023-01-19T07:03:20.876Z,98560.34
2023-01-19T07:05:52.686Z,98571.72
2023-01-19T07:08:20.600Z,98574.19
2023-01-19T07:11:26.102Z,98574.09
2023-01-19T07:13:36.257Z,98578.06
2023-01-19T07:16:12.466Z,98589.78
2023-01-19T07:18:40.944Z,98584.03
2023-01-19T07:21:08.548Z,98593.53
2023-01-19T07:23:38.003Z,98588.78
2023-01-19T07:26:05.454Z,98599.91
2023-01-19T07:28:32.908Z,98608.31
2023-01-19T07:31:00.291Z,98604.72
2023-01-19T07:33:27.919Z,98610.41
2023-01-19T07:35:55.261Z,98619.97
2023-01-19T07:38:22.766Z,98617.28
2023-01-19T07:40:50.077Z,98619.69
2023-01-19T07:43:17.402Z,98627.22
2023-01-19T07:45:45.275Z,98634.19
2023-01-19T07:48:12.591Z,98640.25
2023-01-19T07:50:39.895Z,98645.91
2023-01-19T07:53:09.326Z,98647.69
2023-01-19T07:55:36.526Z,98650.88
2023-01-19T07:58:07.151Z,98655.63
2023-01-19T08:00:39.596Z,98659.78
2023-01-19T08:03:06.804Z,98659.31
2023-01-19T08:05:34.159Z,98668.28
2023-01-19T08:08:01.809Z,98675.06
2023-01-19T08:10:29.228Z,98681.38
2023-01-19T08:12:57.952Z,98687.34
2023-01-19T08:15:26.145Z,98688.06
2023-01-19T08:18:05.537Z,98699.84
2023-01-19T08:20:32.872Z,98701.25
2023-01-19T08:23:01.410Z,98707.97
2023-01-19T08:25:37.157Z,98714.84
2023-01-19T08:28:06.976Z,98717.28
2023-01-19T08:30:35.365Z,98721.13
2023-01-19T08:33:07.975Z,98721.72
2023-01-19T08:35:43.359Z,98728.75
2023-01-19T08:38:11.164Z,98731.50
2023-01-19T08:40:41.912Z,98740.69
2023-01-19T08:43:16.455Z,98747.38
2023-01-19T08:45:51.825Z,98753.16
2023-01-19T08:48:23.544Z,98754.97
2023-01-19T08:50:52.328Z,98758.31
2023-01-19T08:53:21.096Z,98762.00
2023-01-19T08:55:48.257Z,98751.38
2023-01-19T08:58:16.142Z,98758.81
2023-01-19T09:00:43.927Z,98763.47
2023-01-19T09:03:13.938Z,98765.69
2023-01-19T09:05:41.854Z,98772.94
2023-01-19T09:08:15.050Z,98768.56
2023-01-19T09:10:49.899Z,98781.69
2023-01-19T09:13:19.516Z,98775.03
2023-01-19T09:15:47.306Z,98771.66
2023-01-19T09:18:19.877Z,98777.53
2023-01-19T09:20:49.877Z,98778.78
2023-01-19T09:23:20.390Z,98786.16
2023-01-19T09:25:48.252Z,98787.94
2023-01-19T09:28:17.644Z,98790.72
2023-01-19T09:30:45.615Z,98795.19
2023-01-19T09:33:16.856Z,98790.34
2023-01-19T09:35:47.067Z,98800.44
2023-01-19T09:38:16.753Z,98805.22
2023-01-19T09:40:55.885Z,98801.81
2023-01-19T09:43:41.589Z,98804.69
2023-01-19T09:46:41.558Z,98810.16
2023-01-19T09:49:17.243Z,98814.75
2023-01-19T09:51:49.159Z,98811.38
2023-01-19T09:54:21.644Z,98816.94
2023-01-19T09:56:52.663Z,98817.78
2023-01-19T09:59:32.665Z,98814.53
2023-01-19T10:02:12.812Z,98813.22
2023-01-19T10:05:00.292Z,98812.78
2023-01-19T10:08:29.538Z,98814.25
2023-01-19T10:10:58.534Z,98813.53
2023-01-19T10:14:13.889Z,98813.63
2023-01-19T10:17:30.186Z,98810.94
2023-01-19T10:20:02.111Z,98813.34
2023-01-19T10:22:29.415Z,98813.50
2023-01-19T10:25:02.346Z,98821.00
2023-01-19T10:27:34.216Z,98823.25
2023-01-19T10:30:02.275Z,98829.56
2023-01-19T10:32:36.588Z,98829.78
2023-01-19T10:35:26.120Z,98820.94
2023-01-19T10:38:05.082Z,98828.75
2023-01-19T10:41:15.626Z,98831.75
2023-01-19T10:43:46.909Z,98821.84
2023-01-19T10:46:29.397Z,98826.88
2023-01-19T10:48:56.785Z,98824.06
2023-01-19T10:51:24.343Z,98824.25
2023-01-19T10:54:03.520Z,98818.78
2023-01-19T10:56:39.358Z,98822.81
2023-01-19T10:59:09.508Z,98827.41
2023-01-19T11:01:37.950Z,98828.47
2023-01-19T11:04:29.791Z,98825.78
2023-01-19T11:07:26.632Z,98828.47
2023-01-19T11:10:15.608Z,98828.16
2023-01-19T11:13:15.732Z,98825.16
2023-01-19T11:16:25.135Z,98831.31
2023-01-19T11:18:55.533Z,98825.72
2023-01-19T11:21:29.867Z,98823.75
2023-01-19T11:24:05.326Z,98831.22
2023-01-19T11:26:48.356Z,98835.09
2023-01-19T11:29:26.869Z,98834.78
2023-01-19T11:31:57.525Z,98829.13
2023-01-19T11:34:38.649Z,98834.66
2023-01-19T11:37:20.876Z,98840.50
2023-01-19T11:39:56.142Z,98835.00
2023-01-19T11:42:25.101Z,98828.16
2023-01-19T11:45:13.099Z,98829.75
2023-01-19T11:47:45.399Z,98824.47
2023-01-19T11:50:31.532Z,98825.56
2023-01-19T11:53:24.342Z,98827.91
2023-01-19T11:56:14.169Z,98824.47
2023-01-19T11:58:48.444Z,98828.78
2023-01-19T12:01:42.497Z,98824.09
2023-01-19T12:04:35.842Z,98822.16
2023-01-19T12:07:10.591Z,98824.09
2023-01-19T12:09:47.685Z,98827.00
2023-01-19T12:12:35.259Z,98831.28
2023-01-19T12:15:43.044Z,98816.31
2023-01-19T12:18:25.925Z,98818.09
2023-01-19T12:20:55.908Z,98808.84
2023-01-19T12:23:53.874Z,98815.25
2023-01-19T12:26:38.457Z,98815.13
2023-01-19T12:29:15.881Z,98810.28
2023-01-19T12:31:43.973Z,98811.28
2023-01-19T12:34:30.979Z,98823.94
2023-01-19T12:37:06.033Z,98812.22
2023-01-19T12:39:47.943Z,98814.31
2023-01-19T12:42:20.452Z,98817.44
2023-01-19T12:44:49.031Z,98822.16
2023-01-19T12:47:17.435Z,98821.97
2023-01-19T12:49:58.513Z,98811.91
2023-01-19T12:52:39.131Z,98824.19
2023-01-19T12:55:15.535Z,98814.22
2023-01-19T12:58:05.942Z,98822.53
2023-01-19T13:00:39.138Z,98818.19
2023-01-19T13:03:26.799Z,98814.97
2023-01-19T13:05:56.681Z,98821.31
2023-01-19T13:08:56.650Z,98824.44
2023-01-19T13:11:26.677Z,98817.72
2023-01-19T13:14:01.134Z,98826.94
2023-01-19T13:16:28.115Z,98822.34
2023-01-19T13:19:05.248Z,98815.44
2023-01-19T13:21:54.121Z,98819.59
2023-01-19T13:24:23.196Z,98813.88
2023-01-19T13:26:50.242Z,98813.69
2023-01-19T13:29:36.299Z,98811.00
2023-01-19T13:32:19.403Z,98820.63
2023-01-19T13:34:59.155Z,98811.75
2023-01-19T13:37:37.232Z,98818.41
2023-01-19T13:40:05.800Z,98821.97
2023-01-19T13:42:40.836Z,98826.16
2023-01-19T13:45:30.836Z,98828.38
2023-01-19T13:48:01.542Z,98829.53
2023-01-19T13:50:34.598Z,98834.34
2023-01-19T13:53:02.767Z,98831.50
2023-01-19T13:55:31.420Z,98843.28
2023-01-19T13:57:58.661Z,98837.75
2023-01-19T14:00:30.814Z,98842.91
2023-01-19T14:03:23.624Z,98845.59
2023-01-19T14:05:54.015Z,98845.66
2023-01-19T14:08:22.770Z,98836.56
2023-01-19T14:10:56.380Z,98837.63
2023-01-19T14:13:30.882Z,98851.94
2023-01-19T14:16:08.469Z,98858.38
2023-01-19T14:18:36.991Z,98860.03
2023-01-19T14:21:08.828Z,98864.81
2023-01-19T14:23:57.824Z,98875.91
2023-01-19T14:26:53.846Z,98876.81
2023-01-19T14:29:36.245Z,98871.09
2023-01-19T14:32:27.898Z,98877.53
2023-01-19T14:35:04.317Z,98886.22
2023-01-19T14:37:36.516Z,98883.72
2023-01-19T14:40:12.857Z,98879.56
2023-01-19T14:42:54.673Z,98879.56
2023-01-19T14:45:36.856Z,98883.13
2023-01-19T14:48:22.079Z,98888.59
2023-01-19T14:51:02.805Z,98895.22
2023-01-19T14:53:38.911Z,98899.28
2023-01-19T14:56:07.492Z,98904.06
2023-01-19T14:58:36.329Z,98918.16
2023-01-19T15:01:04.573Z,98916.59
2023-01-19T15:03:44.883Z,98925.16
2023-01-19T15:06:21.362Z,98923.16
2023-01-19T15:08:50.099Z,98923.81
2023-01-19T15:11:31.891Z,98928.91
2023-01-19T15:14:00.854Z,98912.41
2023-01-19T15:16:30.495Z,98916.56
2023-01-19T15:18:57.806Z,98911.63
2023-01-19T15:21:26.628Z,98924.81
2023-01-19T15:23:55.078Z,98928.09
2023-01-19T15:26:41.516Z,98927.91
2023-01-19T15:29:26.102Z,98933.06
2023-01-19T15:31:53.718Z,98937.22
2023-01-19T15:34:21.019Z,98932.75
2023-01-19T15:36:48.239Z,98938.44
2023-01-19T15:39:15.351Z,98943.38
2023-01-19T15:41:42.693Z,98940.81
2023-01-19T15:44:11.134Z,98943.69
2023-01-19T15:46:38.479Z,98938.63
2023-01-19T15:49:05.765Z,98956.38
2023-01-19T15:51:33.240Z,98954.69
2023-01-19T15:54:00.461Z,98947.16
2023-01-19T15:56:31.956Z,98946.94
2023-01-19T15:58:59.625Z,98954.38
2023-01-19T16:01:33.785Z,98955.06
2023-01-19T16:04:07.782Z,98955.25
2023-01-19T16:06:35.254Z,98959.03
2023-01-19T16:09:03.829Z,98962.91
2023-01-19T16:11:34.004Z,98962.50
2023-01-19T16:14:01.868Z,98965.91
2023-01-19T16:16:29.586Z,98956.81
2023-01-19T16:18:57.105Z,98971.44
2023-01-19T16:21:24.583Z,98977.69
2023-01-19T16:23:52.140Z,98976.81
2023-01-19T16:26:32.522Z,98978.88
2023-01-19T16:29:10.886Z,98971.22
2023-01-19T16:31:39.952Z,98983.50
2023-01-19T16:34:08.394Z,98984.53
2023-01-19T16:36:40.216Z,98984.75
2023-01-19T16:39:14.203Z,98988.16
2023-01-19T16:41:42.759Z,98988.88
2023-01-19T16:44:15.604Z,98989.19
2023-01-19T16:46:46.436Z,98990.13
2023-01-19T16:49:27.445Z,98995.38
2023-01-19T16:51:56.090Z,98994.16
2023-01-19T16:54:27.015Z,98996.50
2023-01-19T16:56:57.919Z,98994.34
2023-01-19T16:59:27.051Z,98999.94
2023-01-19T17:01:54.748Z,98998.59
2023-01-19T17:04:23.624Z,98991.88
2023-01-19T17:06:50.733Z,98999.22
2023-01-19T17:09:18.118Z,98996.13
2023-01-19T17:11:45.980Z,98995.59
2023-01-19T17:14:20.304Z,98999.19
2023-01-19T17:16:48.488Z,99005.69
2023-01-19T17:19:19.123Z,99008.59
2023-01-19T17:21:51.428Z,99007.47
2023-01-19T17:24:18.912Z,99016.09
2023-01-19T17:26:48.573Z,99009.94
2023-01-19T17:29:16.836Z,99015.19
2023-01-19T17:31:45.617Z,99012.84
2023-01-19T17:34:13.035Z,99014.44
2023-01-19T17:36:40.950Z,99010.75
2023-01-19T17:39:14.654Z,99009.38
2023-01-19T17:41:41.992Z,99010.03
2023-01-19T17:44:10.405Z,99009.38
2023-01-19T17:46:38.831Z,99012.63
2023-01-19T17:49:07.743Z,99010.94
2023-01-19T17:51:35.691Z,99008.47
2023-01-19T17:54:04.140Z,99012.72
2023-01-19T17:56:36.684Z,99011.44
2023-01-19T17:59:06.547Z,99011.44
2023-01-19T18:01:38.180Z,99011.97
2023-01-19T18:04:07.615Z,99017.69
2023-01-19T18:06:35.032Z,99021.84
2023-01-19T18:09:02.894Z,99018.38
2023-01-19T18:11:30.066Z,99020.16
2023-01-19T18:13:58.322Z,99016.81
2023-01-19T18:16:29.493Z,99016.81
2023-01-19T18:18:57.285Z,99014.13
2023-01-19T18:21:28.093Z,99011.22
2023-01-19T18:24:05.821Z,99020.41
2023-01-19T18:26:35.387Z,99022.88
2023-01-19T18:29:02.566Z,99024.44
2023-01-19T18:31:29.944Z,99034.75
2023-01-19T18:33:57.315Z,99027.00
2023-01-19T18:36:24.502Z,99037.38
2023-01-19T18:38:52.087Z,99026.03
2023-01-19T18:41:21.692Z,99034.09
2023-01-19T18:43:49.624Z,99032.31
2023-01-19T18:46:17.072Z,99029.16
2023-01-19T18:48:44.622Z,99021.84
2023-01-19T18:51:15.115Z,99035.41
2023-01-19T18:53:44.145Z,99022.94
2023-01-19T18:56:13.770Z,99023.63
2023-01-19T18:58:41.698Z,99031.59
2023-01-19T19:01:22.306Z,99025.72
2023-01-19T19:03:50.205Z,99028.00
2023-01-19T19:06:20.547Z,99029.16
2023-01-19T19:08:52.081Z,99031.38
2023-01-19T19:11:22.664Z,99023.53
2023-01-19T19:14:00.162Z,99028.34
2023-01-19T19:16:29.486Z,99022.88
2023-01-19T19:18:56.912Z,99025.44
2023-01-19T19:21:25.387Z,99026.91
2023-01-19T19:23:56.856Z,99027.59
2023-01-19T19:26:27.862Z,99033.19
2023-01-19T19:28:55.519Z,99030.72
2023-01-19T19:31:25.941Z,99033.19
2023-01-19T19:33:55.068Z,99020.66
2023-01-19T19:36:23.960Z,99016.81
2023-01-19T19:38:51.435Z,99024.66
2023-01-19T19:41:28.778Z,99022.44
2023-01-19T19:43:56.450Z,99036.56
2023-01-19T19:46:24.762Z,99022.00
2023-01-19T19:48:53.615Z,99031.41
2023-01-19T19:51:27.022Z,99029.16
2023-01-19T19:53:58.617Z,99026.03
2023-01-19T19:56:30.533Z,99028.72
2023-01-19T19:58:59.484Z,99040.41
2023-01-19T20:01:32.867Z,99041.41
2023-01-19T20:04:10.939Z,99038.72
2023-01-19T20:06:44.671Z,99043.97
2023-01-19T20:09:14.044Z,99042.19
2023-01-19T20:11:43.805Z,99036.81
2023-01-19T20:14:13.875Z,99044.88
2023-01-19T20:16:41.088Z,99041.41
2023-01-19T20:19:08.317Z,99038.81
2023-01-19T20:21:41.681Z,99031.31
2023-01-19T20:24:18.988Z,99041.41
2023-01-19T20:26:51.714Z,99040.06
2023-01-19T20:29:20.280Z,99040.06
2023-01-19T20:31:53.832Z,99046.75
2023-01-19T20:34:25.719Z,99043.53
2023-01-19T20:36:53.890Z,99049.56
2023-01-19T20:39:23.556Z,99051.13
2023-01-19T20:41:52.431Z,99050.81
2023-01-19T20:44:24.797Z,99051.09
2023-01-19T20:46:54.402Z,99065.25
2023-01-19T20:49:22.402Z,99069.34
2023-01-19T20:51:51.790Z,99059.38
2023-01-19T20:54:24.361Z,99064.78
2023-01-19T20:56:52.043Z,99061.41
2023-01-19T20:59:19.240Z,99063.66
2023-01-19T21:01:46.665Z,99058.38
2023-01-19T21:04:14.524Z,99064.91
2023-01-19T21:06:42.131Z,99069.50
2023-01-19T21:09:10.651Z,99069.94
2023-01-19T21:11:39.146Z,99060.97
2023-01-19T21:14:07.242Z,99063.66
2023-01-19T21:16:36.188Z,99056.25
2023-01-19T21:19:04.989Z,99068.47
2023-01-19T21:21:32.302Z,99060.38
2023-01-19T21:24:01.596Z,99066.78
2023-01-19T21:26:30.150Z,99069.81
2023-01-19T21:28:59.923Z,99074.06
2023-01-19T21:31:28.336Z,99074.28
2023-01-19T21:34:01.618Z,99075.56
2023-01-19T21:36:28.763Z,99071.97
2023-01-19T21:39:00.291Z,99069.56
2023-01-19T21:41:29.999Z,99069.34
2023-01-19T21:43:58.453Z,99079.00
2023-01-19T21:46:29.038Z,99069.06
2023-01-19T21:49:03.364Z,99077.91
2023-01-19T21:51:34.656Z,99084.78
2023-01-19T21:54:06.879Z,99080.97
2023-01-19T21:56:35.288Z,99087.91
2023-01-19T21:59:03.256Z,99093.72
2023-01-19T22:01:35.373Z,99083.66
2023-01-19T22:04:02.749Z,99093.63
2023-01-19T22:06:30.176Z,99106.06
2023-01-19T22:08:58.356Z,99106.28
2023-01-19T22:11:26.360Z,99103.91
2023-01-19T22:13:54.608Z,99114.56
2023-01-19T22:16:23.404Z,99105.41
2023-01-19T22:18:54.121Z,99110.22
2023-01-19T22:21:25.885Z,99115.03
2023-01-19T22:23:58.902Z,99114.34
2023-01-19T22:26:28.847Z,99113.75
2023-01-19T22:28:59.390Z,99109.38
2023-01-19T22:31:28.491Z,99106.44
2023-01-19T22:33:56.664Z,99110.63
2023-01-19T22:36:35.239Z,99105.59
2023-01-19T22:39:10.358Z,99119.22
2023-01-19T22:41:41.979Z,99125.72
2023-01-19T22:44:16.312Z,99132.03
2023-01-19T22:46:44.475Z,99129.00
2023-01-19T22:49:15.950Z,99131.78
2023-01-19T22:51:44.270Z,99125.31
2023-01-19T22:54:12.281Z,99127.44
2023-01-19T22:56:40.867Z,99123.97
2023-01-19T22:59:09.042Z,99125.78
2023-01-19T23:01:44.371Z,99117.03
2023-01-19T23:04:15.583Z,99122.53
2023-01-19T23:06:43.733Z,99122.41
2023-01-19T23:09:13.890Z,99112.00
2023-01-19T23:11:45.310Z,99115.09
2023-01-19T23:14:20.948Z,99121.50
2023-01-19T23:16:48.363Z,99117.66
2023-01-19T23:19:17.263Z,99121.91
2023-01-19T23:21:45.211Z,99125.28
2023-01-19T23:24:12.457Z,99127.84
2023-01-19T23:26:39.832Z,99135.34
2023-01-19T23:29:17.985Z,99126.19
2023-01-19T23:31:48.758Z,99140.38
2023-01-19T23:34:17.333Z,99143.53
2023-01-19T23:36:45.496Z,99140.28
2023-01-19T23:39:18.369Z,99132.13
2023-01-19T23:41:46.729Z,99136.72
2023-01-19T23:44:14.521Z,99129.34
2023-01-19T23:46:41.842Z,99131.00
2023-01-19T23:49:09.086Z,99135.41
2023-01-19T23:51:36.335Z,99130.34
2023-01-19T23:54:04.003Z,99136.38
2023-01-19T23:56:36.234Z,99127.09
2023-01-19T23:59:11.542Z,99127.91
